createdAt,value
2023-04-10T00:00:41.794Z,46.72
2023-04-10T00:03:12.906Z,57.50
2023-04-10T00:05:43.264Z,60.47
2023-04-10T00:08:13.419Z,54.67
2023-04-10T00:10:43.670Z,66.50
2023-04-10T00:13:14.433Z,69.35
2023-04-10T00:15:44.687Z,65.13
2023-04-10T00:18:14.942Z,60.83
2023-04-10T00:20:45.149Z,56.00
2023-04-10T00:23:15.658Z,53.03
2023-04-10T00:25:48.461Z,52.22
2023-04-10T00:28:18.695Z,48.85
2023-04-10T00:30:47.127Z,46.47
2023-04-10T00:33:15.599Z,44.13
2023-04-10T00:35:47.273Z,43.83
2023-04-10T00:38:15.508Z,43.33
2023-04-10T00:40:43.959Z,41.47
2023-04-10T00:43:12.341Z,38.40
2023-04-10T00:45:41.933Z,37.55
2023-04-10T00:48:09.344Z,38.53
2023-04-10T00:50:38.046Z,40.17
2023-04-10T00:53:06.064Z,36.13
2023-04-10T00:55:34.485Z,40.78
2023-04-10T00:58:03.177Z,39.67
2023-04-10T01:00:31.371Z,38.30
2023-04-10T01:03:01.939Z,37.15
2023-04-10T01:05:51.308Z,38.45
2023-04-10T01:08:36.788Z,35.65
2023-04-10T01:12:15.946Z,35.95
2023-04-10T01:15:04.648Z,35.50
2023-04-10T01:17:56.527Z,34.63
2023-04-10T01:20:34.972Z,33.10
2023-04-10T01:23:46.498Z,31.98
2023-04-10T01:26:39.607Z,33.47
2023-04-10T01:29:23.278Z,32.38
2023-04-10T01:32:05.022Z,35.40
2023-04-10T01:34:48.336Z,33.45
2023-04-10T01:37:31.392Z,33.28
2023-04-10T01:40:09.851Z,33.33
2023-04-10T01:42:50.722Z,33.70
2023-04-10T01:45:29.176Z,33.55
2023-04-10T01:47:58.521Z,34.55
2023-04-10T01:50:30.770Z,32.65
2023-04-10T01:53:06.966Z,37.55
2023-04-10T01:55:41.284Z,34.83
2023-04-10T01:58:10.862Z,33.80
2023-04-10T02:00:43.615Z,34.40
2023-04-10T02:03:14.056Z,31.15
2023-04-10T02:06:29.731Z,33.00
2023-04-10T02:09:37.825Z,31.52
2023-04-10T02:12:22.687Z,33.90
2023-04-10T02:14:57.678Z,32.58
2023-04-10T02:17:32.879Z,33.70
2023-04-10T02:20:07.965Z,33.58
2023-04-10T02:22:45.236Z,34.28
2023-04-10T02:25:16.935Z,32.80
2023-04-10T02:27:46.830Z,37.00
2023-04-10T02:30:15.212Z,33.83
2023-04-10T02:32:44.323Z,35.72
2023-04-10T02:35:12.233Z,35.20
2023-04-10T02:37:40.481Z,36.53
2023-04-10T02:40:09.897Z,35.45
2023-04-10T02:42:37.157Z,33.97
2023-04-10T02:45:06.785Z,32.70
2023-04-10T02:47:33.983Z,31.55
2023-04-10T02:50:02.591Z,34.38
2023-04-10T02:52:31.033Z,35.33
2023-04-10T02:54:59.188Z,32.42
2023-04-10T02:57:28.872Z,33.08
2023-04-10T02:59:56.050Z,33.22
2023-04-10T03:02:24.564Z,31.85
2023-04-10T03:04:53.810Z,35.83
2023-04-10T03:07:21.610Z,36.95
2023-04-10T03:09:49.730Z,37.28
2023-04-10T03:12:18.624Z,37.30
2023-04-10T03:14:46.740Z,36.55
2023-04-10T03:17:14.906Z,35.72
2023-04-10T03:19:43.397Z,37.20
2023-04-10T03:22:11.859Z,35.15
2023-04-10T03:24:41.206Z,37.85
2023-04-10T03:27:08.677Z,35.60
2023-04-10T03:29:37.056Z,34.72
2023-04-10T03:32:06.278Z,35.67
2023-04-10T03:34:33.834Z,35.42
2023-04-10T03:37:03.299Z,34.67
2023-04-10T03:39:30.806Z,33.33
2023-04-10T03:41:59.152Z,35.25
2023-04-10T03:44:27.520Z,36.97
2023-04-10T03:46:55.946Z,35.03
2023-04-10T03:49:24.327Z,37.45
2023-04-10T03:51:53.521Z,34.90
2023-04-10T03:54:21.309Z,36.40
2023-04-10T03:56:49.623Z,37.22
2023-04-10T03:59:18.085Z,32.85
2023-04-10T04:01:46.619Z,35.47
2023-04-10T04:04:15.044Z,35.95
2023-04-10T04:06:43.322Z,36.15
2023-04-10T04:09:11.861Z,36.28
2023-04-10T04:11:40.120Z,38.58
2023-04-10T04:14:08.646Z,39.10
2023-04-10T04:16:37.060Z,36.88
2023-04-10T04:19:05.359Z,35.63
2023-04-10T04:21:34.007Z,38.10
2023-04-10T04:24:02.217Z,36.55
2023-04-10T04:26:31.308Z,38.47
2023-04-10T04:28:59.190Z,39.28
2023-04-10T04:31:32.676Z,37.72
2023-04-10T04:34:03.300Z,36.40
2023-04-10T04:36:33.446Z,39.17
2023-04-10T04:39:03.631Z,39.45
2023-04-10T04:41:34.165Z,38.50
2023-04-10T04:44:06.639Z,38.30
2023-04-10T04:46:36.795Z,36.67
2023-04-10T04:49:06.972Z,39.58
2023-04-10T04:51:38.358Z,35.30
2023-04-10T04:54:08.537Z,35.70
2023-04-10T04:56:38.690Z,37.30
2023-04-10T04:59:08.849Z,40.63
2023-04-10T05:01:39.267Z,39.47
2023-04-10T05:04:09.725Z,37.38
2023-04-10T05:06:39.945Z,36.78
2023-04-10T05:09:10.117Z,36.40
2023-04-10T05:11:40.539Z,35.03
2023-04-10T05:14:10.950Z,37.20
2023-04-10T05:16:41.385Z,35.15
2023-04-10T05:19:11.578Z,34.15
2023-04-10T05:21:41.802Z,35.97
2023-04-10T05:24:12.100Z,37.28
2023-04-10T05:26:42.788Z,38.28
2023-04-10T05:29:12.946Z,36.38
2023-04-10T05:31:43.110Z,34.53
2023-04-10T05:34:13.365Z,35.45
2023-04-10T05:36:43.921Z,35.85
2023-04-10T05:39:14.172Z,34.10
2023-04-10T05:41:44.354Z,36.05
2023-04-10T05:44:14.517Z,38.20
2023-04-10T05:46:44.875Z,34.10
2023-04-10T05:49:15.477Z,33.80
2023-04-10T05:51:50.474Z,33.00
2023-04-10T05:54:20.660Z,34.47
2023-04-10T05:56:50.849Z,35.42
2023-04-10T05:59:21.012Z,35.80
2023-04-10T06:01:51.203Z,35.08
2023-04-10T06:04:24.410Z,34.42
2023-04-10T06:06:55.385Z,33.55
2023-04-10T06:09:25.938Z,36.60
2023-04-10T06:11:56.809Z,35.97
2023-04-10T06:14:24.502Z,32.90
2023-04-10T06:16:52.907Z,34.47
2023-04-10T06:19:21.795Z,35.03
2023-04-10T06:21:49.765Z,33.92
2023-04-10T06:24:18.204Z,33.13
2023-04-10T06:26:46.595Z,36.53
2023-04-10T06:29:15.201Z,33.53
2023-04-10T06:31:44.693Z,34.63
2023-04-10T06:34:14.880Z,35.28
2023-04-10T06:36:43.240Z,35.85
2023-04-10T06:39:11.695Z,34.95
2023-04-10T06:41:40.161Z,36.28
2023-04-10T06:44:08.581Z,36.90
2023-04-10T06:46:36.990Z,38.58
2023-04-10T06:49:05.405Z,36.50
2023-04-10T06:51:33.762Z,39.72
2023-04-10T06:54:02.276Z,39.08
2023-04-10T06:56:30.667Z,36.33
2023-04-10T06:58:59.113Z,38.42
2023-04-10T07:01:27.510Z,38.05
2023-04-10T07:03:56.470Z,37.85
2023-04-10T07:06:24.382Z,35.05
2023-04-10T07:08:52.947Z,37.25
2023-04-10T07:11:21.284Z,35.13
2023-04-10T07:13:53.956Z,36.20
2023-04-10T07:16:24.223Z,34.72
2023-04-10T07:18:54.625Z,37.28
2023-04-10T07:21:25.037Z,37.28
2023-04-10T07:23:55.823Z,34.67
2023-04-10T07:26:26.356Z,35.42
2023-04-10T07:28:56.662Z,34.47
2023-04-10T07:31:27.016Z,34.65
2023-04-10T07:33:57.327Z,34.45
2023-04-10T07:36:27.868Z,33.05
2023-04-10T07:38:58.019Z,34.28
2023-04-10T07:41:28.211Z,34.03
2023-04-10T07:43:58.392Z,33.72
2023-04-10T07:46:28.499Z,35.15
2023-04-10T07:48:57.036Z,33.90
2023-04-10T07:51:26.100Z,32.10
2023-04-10T07:53:53.810Z,33.92
2023-04-10T07:56:23.431Z,32.72
2023-04-10T07:58:52.425Z,33.75
2023-04-10T08:01:22.082Z,33.22
2023-04-10T08:03:50.621Z,32.13
2023-04-10T08:06:18.955Z,31.77
2023-04-10T08:08:47.583Z,29.95
2023-04-10T08:11:42.062Z,31.73
2023-04-10T08:14:13.629Z,31.98
2023-04-10T08:16:48.806Z,31.75
2023-04-10T08:19:19.046Z,31.33
2023-04-10T08:21:49.188Z,31.80
2023-04-10T08:24:21.567Z,31.33
2023-04-10T08:26:51.712Z,29.80
2023-04-10T08:31:53.007Z,30.27
2023-04-10T08:34:24.592Z,30.27
2023-04-10T08:36:55.676Z,31.63
2023-04-10T08:39:26.264Z,30.60
2023-04-10T08:41:56.455Z,30.10
2023-04-10T08:44:26.633Z,29.75
2023-04-10T08:47:01.405Z,28.63
2023-04-10T08:50:02.148Z,29.48
2023-04-10T08:52:43.964Z,28.75
2023-04-10T08:55:15.877Z,29.88
2023-04-10T08:57:50.845Z,27.90
2023-04-10T09:00:31.750Z,25.52
2023-04-10T09:03:00.282Z,23.08
2023-04-10T09:05:31.671Z,25.30
2023-04-10T09:08:01.157Z,24.63
2023-04-10T09:10:31.867Z,24.98
2023-04-10T09:12:59.813Z,25.02
2023-04-10T09:15:28.637Z,20.30
2023-04-10T09:18:03.969Z,20.00
2023-04-10T09:20:34.173Z,19.20
2023-04-10T09:23:24.708Z,17.25
2023-04-10T09:25:52.605Z,18.13
2023-04-10T09:28:22.578Z,19.75
2023-04-10T09:30:52.240Z,19.70
2023-04-10T09:33:25.499Z,18.55
2023-04-10T09:36:04.377Z,17.50
2023-04-10T09:38:35.516Z,18.52
2023-04-10T09:41:09.360Z,18.85
2023-04-10T09:43:39.309Z,17.05
2023-04-10T09:46:09.431Z,17.35
2023-04-10T09:48:57.197Z,17.30
2023-04-10T09:51:34.895Z,17.38
2023-04-10T09:54:05.248Z,17.30
2023-04-10T09:56:40.299Z,19.02
2023-04-10T09:59:11.675Z,18.73
2023-04-10T10:01:42.679Z,17.58
2023-04-10T10:04:15.814Z,16.27
2023-04-10T10:06:46.977Z,15.07
2023-04-10T10:09:17.903Z,17.30
2023-04-10T10:11:52.690Z,16.85
2023-04-10T10:14:29.072Z,16.85
2023-04-10T10:17:12.365Z,15.65
2023-04-10T10:20:01.162Z,15.90
2023-04-10T10:22:33.233Z,15.43
2023-04-10T10:25:04.962Z,13.75
2023-04-10T10:27:41.578Z,12.77
2023-04-10T10:30:28.165Z,14.77
2023-04-10T10:33:05.962Z,15.80
2023-04-10T10:35:38.010Z,13.20
2023-04-10T10:38:09.287Z,15.02
2023-04-10T10:40:55.852Z,12.68
2023-04-10T10:43:56.001Z,11.02
2023-04-10T10:47:33.134Z,11.93
2023-04-10T10:50:04.712Z,13.32
2023-04-10T10:52:51.351Z,14.23
2023-04-10T10:55:37.142Z,12.75
2023-04-10T10:58:11.606Z,13.80
2023-04-10T11:00:50.953Z,13.80
2023-04-10T11:03:22.669Z,12.63
2023-04-10T11:06:04.261Z,12.38
2023-04-10T11:08:34.189Z,14.32
2023-04-10T11:11:25.240Z,13.18
2023-04-10T11:13:58.261Z,12.80
2023-04-10T11:16:36.115Z,12.55
2023-04-10T11:19:16.269Z,13.95
2023-04-10T11:22:08.164Z,14.23
2023-04-10T11:25:02.731Z,13.07
2023-04-10T11:27:49.438Z,13.43
2023-04-10T11:30:28.597Z,13.27
2023-04-10T11:33:01.888Z,12.63
2023-04-10T11:35:33.719Z,13.05
2023-04-10T11:38:18.336Z,13.85
2023-04-10T11:41:04.540Z,14.02
2023-04-10T11:43:35.516Z,13.70
2023-04-10T11:46:08.181Z,14.32
2023-04-10T11:48:38.720Z,13.18
2023-04-10T11:51:14.899Z,13.02
2023-04-10T11:53:43.442Z,12.95
2023-04-10T11:56:22.162Z,13.48
2023-04-10T11:58:55.540Z,12.43
2023-04-10T12:01:24.256Z,11.15
2023-04-10T12:03:52.587Z,12.43
2023-04-10T12:06:22.072Z,12.50
2023-04-10T12:08:52.846Z,12.23
2023-04-10T12:11:24.923Z,11.60
2023-04-10T12:13:58.288Z,12.07
2023-04-10T12:16:28.791Z,11.60
2023-04-10T12:18:59.536Z,10.18
2023-04-10T12:21:29.921Z,11.25
2023-04-10T12:24:00.105Z,11.02
2023-04-10T12:26:30.883Z,10.15
2023-04-10T12:29:01.165Z,10.38
2023-04-10T12:31:35.779Z,10.38
2023-04-10T12:34:08.519Z,9.55
2023-04-10T12:36:39.968Z,9.77
2023-04-10T12:39:25.197Z,9.90
2023-04-10T12:42:22.766Z,10.55
2023-04-10T12:45:01.293Z,9.13
2023-04-10T12:47:31.067Z,8.63
2023-04-10T12:50:13.860Z,9.32
2023-04-10T12:53:01.758Z,9.70
2023-04-10T12:55:31.415Z,10.07
2023-04-10T12:57:59.033Z,9.82
2023-04-10T13:00:27.345Z,9.20
2023-04-10T13:02:56.023Z,9.77
2023-04-10T13:05:25.375Z,9.52
2023-04-10T13:07:53.041Z,10.35
2023-04-10T13:10:22.121Z,10.38
2023-04-10T13:12:49.688Z,9.68
2023-04-10T13:15:18.179Z,10.20
2023-04-10T13:17:46.613Z,10.63
2023-04-10T13:20:15.132Z,9.82
2023-04-10T13:22:43.602Z,10.02
2023-04-10T13:25:11.901Z,11.70
2023-04-10T13:27:40.558Z,10.23
2023-04-10T13:30:09.601Z,10.48
2023-04-10T13:32:38.873Z,11.30
2023-04-10T13:35:08.355Z,10.18
2023-04-10T13:37:35.893Z,9.73
2023-04-10T13:40:05.391Z,10.32
2023-04-10T13:42:32.578Z,11.73
2023-04-10T13:45:01.608Z,9.70
2023-04-10T13:47:29.456Z,11.20
2023-04-10T13:49:57.768Z,11.23
2023-04-10T13:52:26.297Z,10.20
2023-04-10T13:54:54.815Z,8.93
2023-04-10T13:57:23.125Z,10.05
2023-04-10T13:59:51.638Z,9.77
2023-04-10T14:02:20.192Z,9.55
2023-04-10T14:04:51.464Z,9.00
2023-04-10T14:07:21.618Z,9.52
2023-04-10T14:09:51.896Z,9.30
2023-04-10T14:12:23.539Z,9.35
2023-04-10T14:14:54.031Z,9.20
2023-04-10T14:17:24.864Z,9.00
2023-04-10T14:19:54.176Z,9.63
2023-04-10T14:22:24.198Z,9.32
2023-04-10T14:24:58.924Z,9.70
2023-04-10T14:27:35.741Z,10.15
2023-04-10T14:30:07.319Z,9.70
2023-04-10T14:32:36.250Z,10.18
2023-04-10T14:35:07.738Z,10.52
2023-04-10T14:37:39.088Z,10.25
2023-04-10T14:40:10.435Z,10.25
2023-04-10T14:42:40.736Z,10.73
2023-04-10T14:45:11.361Z,10.95
2023-04-10T14:47:41.983Z,10.23
2023-04-10T14:50:12.461Z,10.55
2023-04-10T14:52:42.568Z,10.35
2023-04-10T14:55:12.739Z,10.82
2023-04-10T14:57:42.853Z,10.48
2023-04-10T15:00:13.640Z,10.05
2023-04-10T15:02:44.050Z,11.02
2023-04-10T15:05:14.603Z,10.38
2023-04-10T15:07:44.715Z,10.63
2023-04-10T15:10:14.962Z,9.43
2023-04-10T15:12:45.088Z,10.15
2023-04-10T15:15:15.454Z,10.55
2023-04-10T15:17:45.740Z,11.27
2023-04-10T15:20:16.152Z,9.98
2023-04-10T15:22:48.318Z,9.68
2023-04-10T15:25:18.509Z,9.38
2023-04-10T15:27:48.622Z,9.25
2023-04-10T15:30:19.459Z,9.60
2023-04-10T15:32:49.745Z,11.30
2023-04-10T15:35:21.123Z,9.90
2023-04-10T15:37:51.491Z,9.73
2023-04-10T15:40:21.688Z,11.27
2023-04-10T15:42:51.850Z,9.77
2023-04-10T15:45:22.056Z,10.02
2023-04-10T15:47:52.301Z,9.95
2023-04-10T15:50:22.453Z,10.20
2023-04-10T15:52:52.711Z,9.55
2023-04-10T15:55:22.844Z,8.50
2023-04-10T15:57:51.312Z,9.10
2023-04-10T16:00:20.464Z,9.20
2023-04-10T16:02:48.295Z,10.18
2023-04-10T16:05:16.624Z,9.55
2023-04-10T16:07:45.034Z,9.80
2023-04-10T16:10:13.410Z,9.30
2023-04-10T16:12:42.519Z,8.70
2023-04-10T16:15:11.112Z,9.40
2023-04-10T16:17:40.026Z,9.30
2023-04-10T16:20:08.819Z,8.93
2023-04-10T16:22:36.765Z,9.18
2023-04-10T16:25:05.542Z,8.85
2023-04-10T16:27:33.051Z,9.93
2023-04-10T16:30:01.743Z,9.85
2023-04-10T16:32:31.680Z,9.48
2023-04-10T16:35:02.168Z,9.85
2023-04-10T16:37:32.334Z,9.93
2023-04-10T16:40:02.683Z,9.98
2023-04-10T16:42:32.893Z,9.98
2023-04-10T16:45:03.184Z,9.57
2023-04-10T16:47:33.314Z,9.57
2023-04-10T16:50:03.709Z,9.63
2023-04-10T16:52:34.515Z,9.82
2023-04-10T16:55:05.290Z,10.20
2023-04-10T16:57:35.702Z,8.90
2023-04-10T17:00:07.254Z,10.07
2023-04-10T17:02:37.714Z,9.00
2023-04-10T17:05:08.101Z,9.55
2023-04-10T17:07:36.319Z,8.73
2023-04-10T17:10:05.631Z,9.00
2023-04-10T17:12:33.297Z,9.30
2023-04-10T17:15:01.764Z,8.77
2023-04-10T17:17:30.187Z,9.80
2023-04-10T17:19:58.708Z,8.27
2023-04-10T17:22:26.914Z,9.30
2023-04-10T17:24:55.335Z,9.02
2023-04-10T17:27:23.787Z,8.60
2023-04-10T17:29:52.247Z,8.82
2023-04-10T17:32:20.701Z,9.20
2023-04-10T17:34:49.045Z,9.30
2023-04-10T17:37:19.888Z,9.25
2023-04-10T17:39:51.905Z,8.75
2023-04-10T17:42:23.306Z,8.75
2023-04-10T17:44:53.529Z,8.55
2023-04-10T17:47:23.376Z,8.73
2023-04-10T17:49:53.234Z,9.48
2023-04-10T17:52:24.148Z,9.48
2023-04-10T17:54:54.391Z,9.52
2023-04-10T17:57:23.988Z,9.25
2023-04-10T17:59:52.337Z,10.10
2023-04-10T18:02:20.883Z,9.05
2023-04-10T18:04:49.121Z,9.07
2023-04-10T18:07:17.588Z,10.50
2023-04-10T18:09:45.985Z,9.38
2023-04-10T18:12:19.409Z,9.38
2023-04-10T18:14:48.866Z,8.35
2023-04-10T18:17:17.291Z,9.40
2023-04-10T18:19:45.729Z,10.68
2023-04-10T18:22:14.032Z,10.38
2023-04-10T18:24:42.487Z,10.98
2023-04-10T18:27:10.894Z,9.82
2023-04-10T18:29:39.528Z,10.93
2023-04-10T18:32:07.898Z,10.93
2023-04-10T18:34:36.361Z,10.60
2023-04-10T18:37:04.628Z,11.48
2023-04-10T18:39:33.102Z,10.75
2023-04-10T18:42:02.968Z,10.45
2023-04-10T18:44:34.717Z,11.23
2023-04-10T18:47:04.781Z,11.23
2023-04-10T18:49:35.295Z,11.43
2023-04-10T18:52:05.061Z,10.73
2023-04-10T18:54:36.158Z,12.07
2023-04-10T18:57:07.710Z,10.57
2023-04-10T18:59:38.009Z,10.68
2023-04-10T19:02:09.115Z,10.75
2023-04-10T19:04:39.539Z,10.95
2023-04-10T19:07:09.381Z,10.20
2023-04-10T19:09:39.492Z,10.70
2023-04-10T19:12:14.465Z,11.10
2023-04-10T19:14:44.626Z,10.80
2023-04-10T19:17:14.285Z,10.10
2023-04-10T19:19:44.797Z,10.20
2023-04-10T19:22:15.272Z,10.57
2023-04-10T19:24:45.752Z,10.95
2023-04-10T19:27:15.485Z,10.93
2023-04-10T19:29:45.521Z,10.02
2023-04-10T19:32:15.266Z,9.65
2023-04-10T19:34:51.312Z,9.85
2023-04-10T19:37:21.674Z,10.25
2023-04-10T19:39:49.754Z,9.45
2023-04-10T19:42:19.676Z,10.90
2023-04-10T19:44:49.475Z,10.32
2023-04-10T19:47:19.452Z,10.15
2023-04-10T19:49:48.300Z,10.30
2023-04-10T19:52:18.119Z,10.10
2023-04-10T19:54:47.871Z,11.10
2023-04-10T19:57:17.742Z,11.55
2023-04-10T19:59:47.484Z,11.10
2023-04-10T20:02:18.268Z,10.77
2023-04-10T20:04:48.818Z,10.75
2023-04-10T20:07:19.193Z,10.23
2023-04-10T20:09:48.924Z,10.50
2023-04-10T20:12:18.825Z,10.55
2023-04-10T20:14:48.579Z,9.93
2023-04-10T20:17:18.403Z,10.30
2023-04-10T20:19:48.066Z,9.70
2023-04-10T20:22:18.018Z,10.05
2023-04-10T20:24:47.838Z,9.02
2023-04-10T20:27:18.063Z,9.95
2023-04-10T20:29:48.094Z,10.07
2023-04-10T20:32:18.006Z,9.40
2023-04-10T20:34:47.348Z,9.32
2023-04-10T20:37:18.859Z,9.68
2023-04-10T20:39:46.086Z,9.25
2023-04-10T20:42:17.208Z,9.38
2023-04-10T20:44:47.355Z,10.07
2023-04-10T20:47:17.127Z,8.95
2023-04-10T20:49:46.973Z,9.82
2023-04-10T20:52:16.721Z,10.00
2023-04-10T20:54:46.639Z,10.77
2023-04-10T20:57:16.434Z,9.50
2023-04-10T20:59:46.310Z,9.27
2023-04-10T21:02:18.203Z,9.23
2023-04-10T21:04:50.355Z,9.60
2023-04-10T21:07:20.267Z,8.90
2023-04-10T21:09:50.029Z,9.05
2023-04-10T21:12:19.899Z,8.55
2023-04-10T21:14:49.798Z,8.48
2023-04-10T21:17:20.046Z,8.90
2023-04-10T21:19:50.134Z,8.25
2023-04-10T21:22:19.900Z,8.43
2023-04-10T21:24:48.352Z,9.13
2023-04-10T21:27:17.062Z,9.85
2023-04-10T21:29:45.932Z,8.77
2023-04-10T21:32:13.636Z,8.82
2023-04-10T21:34:42.028Z,8.63
2023-04-10T21:37:10.548Z,9.05
2023-04-10T21:39:43.485Z,9.48
2023-04-10T21:42:19.450Z,9.95
2023-04-10T21:44:49.519Z,8.50
2023-04-10T21:47:19.358Z,9.13
2023-04-10T21:49:47.688Z,9.75
2023-04-10T21:52:16.137Z,10.15
2023-04-10T21:54:44.546Z,9.15
2023-04-10T21:57:12.986Z,9.55
2023-04-10T21:59:41.435Z,9.18
2023-04-10T22:02:11.065Z,9.63
2023-04-10T22:04:51.492Z,9.80
2023-04-10T22:07:24.091Z,8.88
2023-04-10T22:09:54.212Z,10.13
2023-04-10T22:12:23.669Z,9.88
2023-04-10T22:14:53.370Z,9.90
2023-04-10T22:17:23.840Z,8.73
2023-04-10T22:19:53.462Z,9.50
2023-04-10T22:22:23.190Z,9.73
2023-04-10T22:24:52.872Z,9.13
2023-04-10T22:27:24.289Z,9.65
2023-04-10T22:30:02.643Z,9.82
2023-04-10T22:32:32.940Z,9.75
2023-04-10T22:35:03.201Z,9.48
2023-04-10T22:37:32.997Z,8.85
2023-04-10T22:40:03.101Z,8.93
2023-04-10T22:42:31.960Z,9.23
2023-04-10T22:45:00.971Z,9.63
2023-04-10T22:47:28.231Z,9.43
2023-04-10T22:49:57.923Z,9.85
2023-04-10T22:52:27.778Z,9.30
2023-04-10T22:54:57.963Z,8.80
2023-04-10T22:57:27.724Z,9.82
2023-04-10T22:59:59.488Z,10.18
2023-04-10T23:02:28.213Z,9.35
2023-04-10T23:04:58.211Z,9.35
2023-04-10T23:07:28.073Z,9.07
2023-04-10T23:09:58.305Z,9.63
2023-04-10T23:12:28.291Z,10.05
2023-04-10T23:14:58.061Z,9.25
2023-04-10T23:17:27.776Z,9.60
2023-04-10T23:19:57.584Z,9.40
2023-04-10T23:22:29.806Z,9.95
2023-04-10T23:24:59.782Z,9.82
2023-04-10T23:27:29.612Z,9.38
2023-04-10T23:29:59.882Z,9.57
2023-04-10T23:32:29.819Z,9.05
2023-04-10T23:34:59.897Z,9.15
2023-04-10T23:37:29.713Z,9.50
2023-04-10T23:39:59.845Z,9.65
2023-04-10T23:42:29.208Z,9.73
2023-04-10T23:44:58.982Z,9.52
2023-04-10T23:47:28.871Z,9.80
2023-04-10T23:49:58.924Z,9.95
2023-04-10T23:52:29.178Z,9.88
2023-04-10T23:55:02.349Z,10.23
2023-04-10T23:57:31.870Z,9.40
